createdAt,value
2022-08-22T00:02:48.332Z,77.56
2022-08-22T00:02:58.608Z,81.00
2022-08-22T00:03:01.690Z,82.44
2022-08-22T00:04:33.363Z,76.54
2022-08-22T00:09:40.301Z,78.38
2022-08-22T00:14:43.761Z,77.83
2022-08-22T00:19:51.426Z,78.50
2022-08-22T00:24:54.680Z,79.62
2022-08-22T00:29:56.626Z,77.71
2022-08-22T00:34:58.891Z,78.25
2022-08-22T00:40:08.444Z,79.62
2022-08-22T00:45:29.666Z,79.64
2022-08-22T00:50:42.329Z,79.23
2022-08-22T00:56:04.747Z,79.72
2022-08-22T01:01:07.828Z,78.96
2022-08-22T01:06:25.118Z,74.49
2022-08-22T01:11:39.689Z,73.13
2022-08-22T01:17:00.421Z,74.10
2022-08-22T01:22:34.292Z,74.56
2022-08-22T01:28:01.860Z,75.61
2022-08-22T01:33:41.202Z,75.65
2022-08-22T01:39:19.579Z,76.52
2022-08-22T01:44:35.610Z,76.95
2022-08-22T01:49:39.892Z,74.17
2022-08-22T01:54:48.014Z,72.40
2022-08-22T01:59:48.748Z,73.90
2022-08-22T02:04:55.103Z,74.42
2022-08-22T02:10:05.975Z,73.71
2022-08-22T02:15:15.945Z,75.09
2022-08-22T02:20:23.324Z,75.43
2022-08-22T02:25:28.644Z,76.61
2022-08-22T02:30:42.179Z,76.99
2022-08-22T02:35:54.562Z,77.03
2022-08-22T02:41:04.831Z,76.92
2022-08-22T02:46:14.246Z,76.80
2022-08-22T02:51:19.294Z,76.84
2022-08-22T02:56:24.463Z,76.72
2022-08-22T03:01:33.404Z,76.26
2022-08-22T03:06:35.421Z,76.40
2022-08-22T03:11:39.228Z,76.24
2022-08-22T03:16:40.392Z,77.11
2022-08-22T03:21:44.934Z,76.62
2022-08-22T03:26:49.322Z,76.89
2022-08-22T03:32:06.834Z,77.07
2022-08-22T03:37:16.740Z,76.09
2022-08-22T03:42:46.632Z,75.82
2022-08-22T03:47:58.588Z,75.58
2022-08-22T03:53:28.179Z,75.40
2022-08-22T03:58:46.920Z,75.80
2022-08-22T04:04:16.096Z,75.97
2022-08-22T04:09:51.380Z,75.84
2022-08-22T04:15:11.556Z,75.96
2022-08-22T04:20:38.896Z,75.62
2022-08-22T04:25:40.603Z,76.29
2022-08-22T04:30:44.909Z,75.63
2022-08-22T04:35:50.843Z,75.56
2022-08-22T04:40:53.935Z,75.32
2022-08-22T04:45:56.153Z,74.99
2022-08-22T04:50:57.977Z,75.10
2022-08-22T04:56:07.639Z,74.82
2022-08-22T05:01:12.991Z,73.73
2022-08-22T05:06:11.491Z,73.66
2022-08-22T05:11:11.154Z,72.82
2022-08-22T05:16:14.083Z,72.13
2022-08-22T05:21:13.952Z,71.43
2022-08-22T05:26:13.506Z,71.13
2022-08-22T05:31:14.389Z,71.76
2022-08-22T05:36:16.516Z,70.11
2022-08-22T05:41:25.662Z,68.92
2022-08-22T05:46:27.016Z,69.88
2022-08-22T05:51:27.131Z,67.98
2022-08-22T05:56:35.703Z,67.16
2022-08-22T06:01:41.785Z,66.55
2022-08-22T06:06:43.852Z,66.87
2022-08-22T06:11:51.929Z,66.66
2022-08-22T06:16:56.374Z,66.86
2022-08-22T06:21:55.802Z,66.29
2022-08-22T06:26:58.302Z,66.74
2022-08-22T06:31:58.061Z,65.40
2022-08-22T06:37:02.219Z,64.02
2022-08-22T06:42:03.290Z,63.75
2022-08-22T06:47:05.970Z,63.42
2022-08-22T06:52:08.153Z,61.79
2022-08-22T06:57:06.497Z,60.20
2022-08-22T07:02:16.381Z,57.71
2022-08-22T07:07:19.009Z,56.24
2022-08-22T07:12:19.127Z,49.14
2022-08-22T07:17:19.318Z,51.15
2022-08-22T07:22:22.477Z,51.98
2022-08-22T07:27:36.878Z,52.37
2022-08-22T07:32:43.097Z,49.98
2022-08-22T07:37:50.228Z,51.01
2022-08-22T07:42:52.147Z,52.11
2022-08-22T07:48:04.939Z,48.51
2022-08-22T07:53:13.888Z,47.53
2022-08-22T07:58:14.904Z,46.41
2022-08-22T08:03:13.039Z,43.14
2022-08-22T08:08:30.586Z,43.51
2022-08-22T08:13:34.090Z,42.23
2022-08-22T08:18:34.478Z,36.67
2022-08-22T08:23:39.564Z,38.86
2022-08-22T08:28:45.202Z,41.16
2022-08-22T08:33:47.379Z,42.64
2022-08-22T08:39:02.727Z,40.65
2022-08-22T08:44:12.388Z,39.60
2022-08-22T08:49:25.784Z,40.19
2022-08-22T08:54:48.689Z,40.18
2022-08-22T09:00:02.210Z,39.20
2022-08-22T09:05:41.207Z,36.06
2022-08-22T09:11:28.145Z,30.53
2022-08-22T09:16:51.567Z,31.50
2022-08-22T09:22:21.386Z,33.20
2022-08-22T09:27:29.513Z,32.30
2022-08-22T09:32:42.239Z,31.67
2022-08-22T09:38:09.314Z,28.41
2022-08-22T09:43:11.070Z,29.21
2022-08-22T09:48:21.248Z,30.68
2022-08-22T10:06:59.163Z,26.12
2022-08-22T10:12:44.780Z,28.15
2022-08-22T10:18:03.386Z,29.97
2022-08-22T10:23:15.775Z,31.84
2022-08-22T10:28:18.745Z,29.87
2022-08-22T10:33:36.457Z,32.39
2022-08-22T10:38:44.164Z,31.70
2022-08-22T10:44:09.601Z,30.39
2022-08-22T10:49:28.226Z,31.81
2022-08-22T10:54:44.168Z,32.91
2022-08-22T10:59:46.141Z,30.91
2022-08-22T11:05:07.567Z,31.95
2022-08-22T11:10:17.359Z,33.86
2022-08-22T11:15:27.230Z,32.80
2022-08-22T11:20:41.262Z,34.11
2022-08-22T11:25:52.359Z,34.41
2022-08-22T11:31:03.087Z,35.80
2022-08-22T11:36:26.140Z,37.16
2022-08-22T11:41:36.407Z,36.73
2022-08-22T11:46:36.816Z,37.12
2022-08-22T11:52:16.458Z,37.88
2022-08-22T11:57:20.575Z,38.33
2022-08-22T12:02:25.878Z,35.72
2022-08-22T12:07:28.722Z,35.90
2022-08-22T12:12:55.070Z,36.86
2022-08-22T12:18:21.941Z,38.34
2022-08-22T12:24:00.418Z,39.06
2022-08-22T12:29:20.241Z,40.38
2022-08-22T12:34:50.430Z,41.03
2022-08-22T12:40:22.044Z,42.21
2022-08-22T12:45:54.816Z,40.93
2022-08-22T12:50:57.898Z,40.28
2022-08-22T12:56:10.283Z,39.51
2022-08-22T13:01:12.462Z,39.60
2022-08-22T13:06:54.624Z,37.86
2022-08-22T13:12:02.474Z,39.31
2022-08-22T13:17:23.665Z,39.91
2022-08-22T13:22:26.891Z,40.27
2022-08-22T13:27:31.258Z,39.98
2022-08-22T13:32:35.607Z,41.80
2022-08-22T13:37:38.358Z,39.92
2022-08-22T13:42:45.117Z,39.55
2022-08-22T13:47:55.161Z,39.07
2022-08-22T13:53:07.087Z,38.72
2022-08-22T13:58:24.964Z,38.80
2022-08-22T14:03:32.173Z,40.30
2022-08-22T14:08:35.769Z,41.10
2022-08-22T14:13:38.331Z,40.55
2022-08-22T14:18:45.533Z,40.74
2022-08-22T14:23:54.990Z,40.37
2022-08-22T14:28:57.437Z,40.58
2022-08-22T14:33:58.969Z,40.91
2022-08-22T14:39:30.271Z,39.94
2022-08-22T14:44:42.687Z,40.10
2022-08-22T14:49:52.620Z,40.45
2022-08-22T14:55:08.279Z,39.20
2022-08-22T15:00:11.427Z,40.06
2022-08-22T15:05:24.060Z,39.76
2022-08-22T15:11:31.962Z,40.17
2022-08-22T15:16:41.786Z,39.58
2022-08-22T15:22:14.072Z,40.83
2022-08-22T15:27:33.754Z,40.78
2022-08-22T15:32:41.911Z,40.58
2022-08-22T15:38:11.206Z,40.04
2022-08-22T15:43:20.065Z,40.95
2022-08-22T15:48:29.670Z,41.19
2022-08-22T15:53:33.562Z,40.41
2022-08-22T15:58:48.744Z,40.62
2022-08-22T16:03:58.346Z,40.33
2022-08-22T16:09:02.609Z,40.79
2022-08-22T16:14:22.307Z,40.24
2022-08-22T16:19:31.772Z,41.63
2022-08-22T16:25:05.791Z,42.21
2022-08-22T16:30:37.168Z,41.89
2022-08-22T16:36:25.733Z,42.47
2022-08-22T16:41:33.636Z,42.44
2022-08-22T16:47:05.661Z,42.81
2022-08-22T16:53:03.062Z,42.88
2022-08-22T16:58:50.228Z,43.29
2022-08-22T17:04:33.216Z,43.47
2022-08-22T17:10:07.904Z,43.13
2022-08-22T17:16:34.711Z,43.56
2022-08-22T17:22:08.733Z,44.28
2022-08-22T17:27:21.492Z,45.63
2022-08-22T17:32:34.890Z,47.52
2022-08-22T17:37:55.174Z,48.67
2022-08-22T17:43:10.107Z,50.28
2022-08-22T17:48:17.169Z,48.81
2022-08-22T17:53:29.525Z,50.08
2022-08-22T17:58:47.851Z,50.91
2022-08-22T18:04:09.376Z,52.39
2022-08-22T18:09:38.320Z,53.24
2022-08-22T18:15:07.968Z,54.09
2022-08-22T18:20:18.715Z,55.10
2022-08-22T18:25:59.632Z,55.51
2022-08-22T18:31:19.799Z,55.89
2022-08-22T18:36:45.792Z,56.54
2022-08-22T18:42:30.061Z,57.15
2022-08-22T18:47:33.776Z,58.03
2022-08-22T18:52:57.811Z,58.34
2022-08-22T18:58:41.536Z,59.13
2022-08-22T19:04:25.914Z,59.98
2022-08-22T19:10:13.209Z,60.58
2022-08-22T19:15:27.098Z,61.48
2022-08-22T19:20:48.081Z,61.53
2022-08-22T19:26:47.185Z,61.57
2022-08-22T19:31:50.328Z,62.08
2022-08-22T19:37:33.126Z,62.51
2022-08-22T19:42:41.214Z,62.77
2022-08-22T19:47:58.129Z,63.34
2022-08-22T19:53:13.866Z,63.51
2022-08-22T19:58:32.581Z,63.83
2022-08-22T20:03:50.052Z,63.99
2022-08-22T20:09:03.121Z,64.61
2022-08-22T20:14:30.382Z,64.77
2022-08-22T20:20:19.338Z,65.31
2022-08-22T20:25:42.134Z,65.69
2022-08-22T20:30:50.092Z,65.37
2022-08-22T20:35:52.455Z,65.24
2022-08-22T20:41:00.529Z,65.23
2022-08-22T20:46:16.578Z,64.09
2022-08-22T20:51:21.525Z,63.12
2022-08-22T20:57:06.164Z,62.19
2022-08-22T21:02:40.747Z,61.59
2022-08-22T21:07:44.693Z,61.65
2022-08-22T21:13:03.267Z,60.86
2022-08-22T21:18:03.356Z,60.32
2022-08-22T21:23:04.561Z,60.30
2022-08-22T21:28:02.064Z,60.23
2022-08-22T21:33:06.005Z,60.80
2022-08-22T21:38:27.680Z,60.79
2022-08-22T21:43:30.963Z,60.52
2022-08-22T21:48:40.952Z,60.88
2022-08-22T21:53:39.931Z,62.61
2022-08-22T21:59:12.461Z,64.22
2022-08-22T22:04:10.998Z,64.81
2022-08-22T22:09:14.950Z,65.96
2022-08-22T22:14:17.330Z,66.92
2022-08-22T22:19:18.672Z,68.20
2022-08-22T22:24:23.981Z,68.43
2022-08-22T22:29:21.504Z,68.46
2022-08-22T22:34:19.626Z,68.34
2022-08-22T22:39:22.496Z,67.64
2022-08-22T22:44:23.923Z,68.29
2022-08-22T22:49:24.154Z,69.13
2022-08-22T22:54:27.343Z,69.25
2022-08-22T22:59:30.267Z,69.67
2022-08-22T23:04:36.056Z,70.48
2022-08-22T23:10:11.919Z,70.62
2022-08-22T23:15:22.591Z,71.15
2022-08-22T23:20:24.372Z,71.03
2022-08-22T23:25:26.356Z,71.21
2022-08-22T23:30:26.682Z,71.60
2022-08-22T23:35:30.554Z,72.21
2022-08-22T23:40:34.096Z,72.14
2022-08-22T23:45:33.249Z,71.82
2022-08-22T23:50:31.231Z,71.20
2022-08-22T23:55:28.379Z,71.18
